KLNK/LNK METAR and TAF weather

Enter ICAO airport designator
Station Type Date Time Source
KLNK METAR 2021/07/30 22:54 UTC NOAA

KLNK 302254Z 11008KT 6SM HZ SCT030 33/25 A3002 RMK AO2 SLP150 T03280250


Station Type Date Time Source
KLNK Decoded METAR 2021/07/30 22:54 UTC NOAA

LINCOLN MUNICIPAL AIRPORT, NE, United States (KLNK) 40-50N 96-46W 364M
Jul 30, 2021 - 06:54 PM EDT / 2021.07.30 2254 UTC
Wind: from the ESE (110 degrees) at 9 MPH (8 KT):0
Visibility: 6 mile(s):0
Sky conditions: partly cloudy
Weather: haze
Temperature: 91.0 F (32.8 C)
Heat index: 104.0 F (40.0 C):1
Dew Point: 77.0 F (25.0 C)
Relative Humidity: 63%
Pressure (altimeter): 30.02 in. Hg (1016 hPa)
ob: KLNK 302254Z 11008KT 6SM HZ SCT030 33/25 A3002 RMK AO2 SLP150 T03280250
cycle: 23

Station Type Date Time Source
KLNK TAF 2021/07/30 18:27 UTC NOAA

TAF KLNK 301725Z 3018/3118 09011KT 4SM FU BKN020
FM302200 10013KT 6SM FU BKN040
TEMPO 3022/3023 4SM TS BKN020CB
FM310600 06009KT 6SM FU BKN020
FM311000 02007KT 4SM FU BKN010

Example: see airport list